Terminal Aerodrome Forecast
Issued by NWS

Home | Current Version | Previous Version | Graphics & Text | Print | Product List | Glossary On
Versions: 1 2 3 4 5 6 7 8 9 10 11 12 13 14 15 16
000
FTUS43 KICT 220500
TAFSLN
TAF
KSLN 220520Z 2206/2306 17012KT P6SM SCT150
     FM221500 18020G33KT P6SM BKN150
     FM222300 19012KT P6SM VCSH SCT030 OVC100=

USA.gov is the U.S. government's official web portal to all federal, state and local government web resources and services.